createdAt,value
2023-03-11T00:00:35.481Z,10.17
2023-03-11T00:03:23.529Z,9.98
2023-03-11T00:05:52.905Z,9.50
2023-03-11T00:08:23.491Z,9.80
2023-03-11T00:11:00.299Z,9.10
2023-03-11T00:13:28.914Z,7.72
2023-03-11T00:15:56.940Z,5.97
2023-03-11T00:18:27.944Z,5.50
2023-03-11T00:20:56.403Z,5.22
2023-03-11T00:23:25.266Z,5.68
2023-03-11T00:25:52.794Z,4.72
2023-03-11T00:28:22.264Z,4.57
2023-03-11T00:30:49.166Z,5.28
2023-03-11T00:33:16.813Z,5.30
2023-03-11T00:35:44.157Z,5.70
2023-03-11T00:38:15.372Z,5.75
2023-03-11T00:40:43.187Z,5.60
2023-03-11T00:43:10.884Z,5.63
2023-03-11T00:45:37.978Z,6.10
2023-03-11T00:48:06.623Z,5.70
2023-03-11T00:50:35.981Z,5.83
2023-03-11T00:53:04.125Z,5.57
2023-03-11T00:55:33.161Z,5.63
2023-03-11T00:58:03.743Z,5.57
2023-03-11T01:00:31.946Z,6.40
2023-03-11T01:03:00.620Z,6.60
2023-03-11T01:05:30.592Z,7.30
2023-03-11T01:07:58.545Z,6.55
2023-03-11T01:10:25.868Z,6.63
2023-03-11T01:12:53.212Z,6.80
2023-03-11T01:15:32.927Z,7.57
2023-03-11T01:18:00.563Z,6.75
2023-03-11T01:20:28.221Z,5.93
2023-03-11T01:22:55.559Z,6.97
2023-03-11T01:25:24.119Z,7.70
2023-03-11T01:27:51.567Z,6.40
2023-03-11T01:30:21.869Z,6.70
2023-03-11T01:32:50.288Z,5.95
2023-03-11T01:35:19.204Z,5.93
2023-03-11T01:37:47.293Z,6.00
2023-03-11T01:40:21.828Z,5.63
2023-03-11T01:42:49.012Z,5.80
2023-03-11T01:45:43.190Z,5.97
2023-03-11T01:48:10.872Z,5.82
2023-03-11T01:50:44.799Z,5.40
2023-03-11T01:53:14.900Z,5.28
2023-03-11T01:55:42.806Z,5.60
2023-03-11T01:58:17.070Z,5.20
2023-03-11T02:00:44.288Z,5.57
2023-03-11T02:03:18.506Z,5.28
2023-03-11T02:05:46.583Z,4.57
2023-03-11T02:08:13.794Z,6.03
2023-03-11T02:10:42.747Z,4.47
2023-03-11T02:15:39.931Z,5.28
2023-03-11T02:18:08.819Z,4.07
2023-03-11T02:20:54.382Z,4.38
2023-03-11T02:23:28.301Z,4.57
2023-03-11T02:26:04.768Z,4.60
2023-03-11T02:28:35.766Z,4.77
2023-03-11T02:31:02.662Z,6.15
2023-03-11T02:33:32.649Z,4.55
2023-03-11T02:35:59.643Z,4.47
2023-03-11T02:38:26.868Z,3.70
2023-03-11T02:41:00.164Z,4.68
2023-03-11T02:43:41.977Z,4.20
2023-03-11T02:46:11.723Z,3.72
2023-03-11T02:48:39.495Z,3.40
2023-03-11T02:51:06.385Z,3.40
2023-03-11T02:53:41.645Z,3.58
2023-03-11T02:56:08.596Z,4.40
2023-03-11T02:58:35.808Z,3.70
2023-03-11T03:01:03.644Z,3.70
2023-03-11T03:03:30.920Z,3.90
2023-03-11T03:05:57.818Z,4.13
2023-03-11T03:08:24.994Z,4.22
2023-03-11T03:10:51.936Z,3.28
2023-03-11T03:13:19.192Z,3.25
2023-03-11T03:15:46.046Z,3.75
2023-03-11T03:18:13.316Z,3.50
2023-03-11T03:20:40.166Z,3.20
2023-03-11T03:23:07.279Z,3.58
2023-03-11T03:25:34.232Z,2.95
2023-03-11T03:28:01.476Z,3.05
2023-03-11T03:30:29.497Z,3.80
2023-03-11T03:32:56.601Z,3.97
2023-03-11T03:35:23.488Z,3.78
2023-03-11T03:37:50.677Z,4.20
2023-03-11T03:40:17.676Z,3.85
2023-03-11T03:42:44.783Z,4.25
2023-03-11T03:45:12.140Z,3.45
2023-03-11T03:47:39.453Z,3.38
2023-03-11T03:50:08.517Z,3.72
2023-03-11T03:52:36.779Z,3.72
2023-03-11T03:55:05.618Z,3.42
2023-03-11T03:57:32.812Z,3.70
2023-03-11T03:59:59.662Z,3.53
2023-03-11T04:02:26.903Z,3.83
2023-03-11T04:04:54.032Z,3.85
2023-03-11T04:07:21.232Z,3.70
2023-03-11T04:09:48.248Z,3.30
2023-03-11T04:12:17.540Z,3.50
2023-03-11T04:14:44.987Z,3.78
2023-03-11T04:17:13.541Z,3.30
2023-03-11T04:19:41.127Z,3.60
2023-03-11T04:22:08.807Z,3.35
2023-03-11T04:24:35.723Z,3.60
2023-03-11T04:27:02.983Z,3.60
2023-03-11T04:29:29.992Z,4.05
2023-03-11T04:31:57.259Z,3.88
2023-03-11T04:34:24.396Z,3.95
2023-03-11T04:36:53.898Z,4.05
2023-03-11T04:41:47.988Z,4.47
2023-03-11T04:44:15.026Z,4.25
2023-03-11T04:46:42.241Z,5.53
2023-03-11T04:49:09.998Z,5.10
2023-03-11T04:51:37.545Z,4.00
2023-03-11T04:54:04.865Z,3.72
2023-03-11T04:56:32.100Z,4.03
2023-03-11T04:58:59.134Z,3.75
2023-03-11T05:01:26.620Z,4.00
2023-03-11T05:03:53.523Z,3.33
2023-03-11T05:06:20.698Z,3.83
2023-03-11T05:08:47.640Z,3.65
2023-03-11T05:11:14.907Z,4.82
2023-03-11T05:13:41.772Z,5.10
2023-03-11T05:16:10.223Z,5.90
2023-03-11T05:18:37.292Z,5.20
2023-03-11T05:21:04.747Z,4.78
2023-03-11T05:23:31.757Z,5.50
2023-03-11T05:25:59.057Z,9.07
2023-03-11T05:28:26.073Z,8.52
2023-03-11T05:30:53.328Z,8.43
2023-03-11T05:33:20.389Z,8.18
2023-03-11T05:35:47.549Z,6.43
2023-03-11T05:38:14.826Z,9.60
2023-03-11T05:40:42.018Z,11.02
2023-03-11T05:43:09.039Z,14.70
2023-03-11T05:45:36.250Z,12.32
2023-03-11T05:48:03.241Z,10.23
2023-03-11T05:50:30.518Z,8.77
2023-03-11T05:52:57.382Z,6.32
2023-03-11T05:55:24.612Z,6.47
2023-03-11T05:57:52.534Z,10.77
2023-03-11T06:00:20.677Z,14.43
2023-03-11T06:02:47.810Z,11.65
2023-03-11T06:05:15.477Z,9.70
2023-03-11T06:07:42.557Z,9.80
2023-03-11T06:10:10.561Z,9.18
2023-03-11T06:12:38.652Z,7.45
2023-03-11T06:15:07.628Z,4.60
2023-03-11T06:17:34.516Z,3.92
2023-03-11T06:20:01.840Z,3.88
2023-03-11T06:22:28.828Z,12.48
2023-03-11T06:24:56.152Z,4.67
2023-03-11T06:27:23.070Z,3.97
2023-03-11T06:29:54.451Z,2.27
2023-03-11T06:32:21.746Z,3.20
2023-03-11T06:34:53.629Z,2.33
2023-03-11T06:37:21.713Z,2.87
2023-03-11T06:39:53.479Z,2.10
2023-03-11T06:42:21.383Z,1.80
2023-03-11T06:44:48.779Z,1.73
2023-03-11T06:47:16.158Z,1.90
2023-03-11T06:49:43.540Z,2.20
2023-03-11T06:52:10.479Z,1.80
2023-03-11T06:54:37.871Z,8.67
2023-03-11T06:57:08.205Z,19.13
2023-03-11T06:59:36.176Z,37.07
2023-03-11T07:02:04.784Z,15.33
2023-03-11T07:04:33.031Z,20.85
2023-03-11T07:06:59.929Z,15.27
2023-03-11T07:09:28.507Z,10.70
2023-03-11T07:11:55.579Z,14.20
2023-03-11T07:14:23.258Z,6.93
2023-03-11T07:16:50.238Z,3.27
2023-03-11T07:19:17.806Z,4.40
2023-03-11T07:21:44.979Z,2.47
2023-03-11T07:24:14.393Z,18.13
2023-03-11T07:26:44.316Z,3.10
2023-03-11T07:29:11.902Z,2.50
2023-03-11T07:31:39.171Z,1.90
2023-03-11T07:34:11.416Z,1.60
2023-03-11T07:36:41.321Z,1.90
2023-03-11T07:39:13.040Z,3.87
2023-03-11T07:41:39.974Z,1.90
2023-03-11T07:44:08.766Z,1.50
2023-03-11T07:46:36.843Z,3.47
2023-03-11T07:49:04.522Z,8.43
2023-03-11T07:51:33.896Z,3.17
2023-03-11T07:54:01.973Z,2.10
2023-03-11T07:56:32.159Z,4.90
2023-03-11T07:59:01.523Z,3.80
2023-03-11T08:01:36.056Z,16.08
2023-03-11T08:04:08.622Z,8.60
2023-03-11T08:06:37.404Z,8.90
2023-03-11T08:09:09.447Z,7.57
2023-03-11T08:11:37.234Z,4.03
2023-03-11T08:14:05.299Z,37.50
2023-03-11T08:16:32.216Z,9.07
2023-03-11T08:18:59.564Z,5.88
2023-03-11T08:21:29.972Z,4.72
2023-03-11T08:23:58.962Z,2.90
2023-03-11T08:26:26.232Z,14.63
2023-03-11T08:28:54.318Z,2.28
2023-03-11T08:31:26.800Z,2.10
2023-03-11T08:33:59.509Z,3.35
2023-03-11T08:36:27.102Z,2.07
2023-03-11T08:38:54.397Z,3.60
2023-03-11T08:41:21.451Z,3.10
2023-03-11T08:43:48.865Z,1.87
2023-03-11T08:46:30.603Z,3.93
2023-03-11T08:49:01.021Z,2.47
2023-03-11T08:51:30.192Z,2.00
2023-03-11T08:53:57.933Z,1.60
2023-03-11T08:56:25.775Z,1.53
2023-03-11T08:58:53.082Z,1.60
2023-03-11T09:01:23.781Z,1.87
2023-03-11T09:03:51.642Z,2.00
2023-03-11T09:06:19.660Z,1.70
2023-03-11T09:08:47.756Z,2.03
2023-03-11T09:11:16.527Z,2.27
2023-03-11T09:13:47.300Z,2.10
2023-03-11T09:16:23.228Z,2.43
2023-03-11T09:18:50.744Z,2.00
2023-03-11T09:21:17.752Z,2.20
2023-03-11T09:23:45.019Z,2.20
2023-03-11T09:26:13.186Z,2.60
2023-03-11T09:28:41.815Z,2.00
2023-03-11T09:31:09.419Z,3.35
2023-03-11T09:33:39.340Z,2.80
2023-03-11T09:36:07.577Z,11.07
2023-03-11T09:38:34.776Z,42.00
2023-03-11T09:41:08.888Z,15.80
2023-03-11T09:43:53.704Z,13.07
2023-03-11T09:46:24.525Z,30.37
2023-03-11T09:48:58.157Z,27.40
2023-03-11T09:51:32.937Z,22.33
2023-03-11T09:54:04.567Z,8.87
2023-03-11T09:56:34.633Z,12.77
2023-03-11T09:59:07.884Z,9.20
2023-03-11T10:01:43.420Z,6.47
2023-03-11T10:04:16.611Z,2.63
2023-03-11T10:06:46.212Z,1.90
2023-03-11T10:09:25.569Z,1.40
2023-03-11T10:12:10.929Z,1.33
2023-03-11T10:14:56.590Z,1.20
2023-03-11T10:17:41.768Z,1.83
2023-03-11T10:20:22.679Z,1.70
2023-03-11T10:23:07.598Z,1.30
2023-03-11T10:25:57.029Z,1.30
2023-03-11T10:31:34.969Z,1.48
2023-03-11T10:37:09.463Z,1.43
2023-03-11T10:39:37.354Z,1.57
2023-03-11T10:42:14.176Z,1.83
2023-03-11T10:44:42.781Z,1.93
2023-03-11T10:47:25.403Z,7.97
2023-03-11T10:49:52.857Z,4.53
2023-03-11T10:52:20.540Z,3.70
2023-03-11T10:54:59.488Z,9.80
2023-03-11T10:57:32.880Z,7.90
2023-03-11T11:00:02.035Z,11.30
2023-03-11T11:02:32.843Z,19.00
2023-03-11T11:05:22.776Z,18.43
2023-03-11T11:07:53.278Z,13.27
2023-03-11T11:10:25.449Z,12.50
2023-03-11T11:12:59.613Z,31.47
2023-03-11T11:15:35.706Z,42.27
2023-03-11T11:18:15.269Z,17.57
2023-03-11T11:21:08.056Z,5.80
2023-03-11T11:23:42.840Z,11.13
2023-03-11T11:26:26.474Z,11.47
2023-03-11T11:29:12.368Z,6.17
2023-03-11T11:31:42.454Z,35.07
2023-03-11T11:34:32.635Z,21.87
2023-03-11T11:37:03.513Z,17.10
2023-03-11T11:39:51.426Z,10.63
2023-03-11T11:42:20.170Z,7.60
2023-03-11T11:44:52.316Z,3.00
2023-03-11T11:47:27.872Z,4.60
2023-03-11T11:49:59.065Z,3.67
2023-03-11T11:52:37.836Z,2.43
2023-03-11T11:55:20.301Z,2.38
2023-03-11T11:57:48.158Z,2.67
2023-03-11T12:00:21.181Z,2.50
2023-03-11T12:03:10.403Z,2.30
2023-03-11T12:05:50.893Z,2.43
2023-03-11T12:08:25.474Z,2.40
2023-03-11T12:11:03.070Z,2.47
2023-03-11T12:13:48.530Z,2.50
2023-03-11T12:16:31.549Z,2.27
2023-03-11T12:19:10.654Z,3.23
2023-03-11T12:22:02.514Z,3.33
2023-03-11T12:24:38.322Z,2.80
2023-03-11T12:27:15.135Z,2.90
2023-03-11T12:29:50.267Z,2.70
2023-03-11T12:32:31.599Z,2.37
2023-03-11T12:35:20.032Z,2.80
2023-03-11T12:38:16.770Z,2.88
2023-03-11T12:41:06.449Z,3.20
2023-03-11T12:43:33.945Z,3.20
2023-03-11T12:46:05.698Z,2.73
2023-03-11T12:48:32.888Z,3.20
2023-03-11T12:51:00.271Z,3.13
2023-03-11T12:53:48.699Z,3.73
2023-03-11T12:56:39.730Z,3.17
2023-03-11T12:59:40.611Z,3.37
2023-03-11T13:02:10.281Z,3.70
2023-03-11T13:04:43.725Z,3.77
2023-03-11T13:07:22.921Z,3.10
2023-03-11T13:10:03.367Z,5.93
2023-03-11T13:12:41.352Z,4.67
2023-03-11T13:15:20.666Z,3.50
2023-03-11T13:20:39.233Z,4.70
2023-03-11T13:23:12.452Z,3.20
2023-03-11T13:25:42.968Z,3.70
2023-03-11T13:28:27.888Z,3.50
2023-03-11T13:31:16.720Z,3.83
2023-03-11T13:33:57.367Z,7.60
2023-03-11T13:36:42.648Z,11.83
2023-03-11T13:39:27.943Z,4.43
2023-03-11T13:41:56.159Z,20.00
2023-03-11T13:44:30.211Z,15.13
2023-03-11T13:47:04.141Z,14.20
2023-03-11T13:49:41.307Z,8.90
2023-03-11T13:52:14.422Z,8.00
2023-03-11T13:55:22.590Z,7.33
2023-03-11T13:57:54.792Z,6.20
2023-03-11T14:00:29.001Z,6.80
2023-03-11T14:02:58.887Z,7.30
2023-03-11T14:05:34.983Z,3.00
2023-03-11T14:08:25.628Z,4.87
2023-03-11T14:11:04.147Z,4.50
2023-03-11T14:13:33.582Z,6.60
2023-03-11T14:18:34.940Z,5.37
2023-03-11T14:21:04.759Z,5.57
2023-03-11T14:23:40.968Z,4.30
2023-03-11T14:26:12.523Z,4.77
2023-03-11T14:28:45.005Z,5.10
2023-03-11T14:31:36.956Z,3.97
2023-03-11T14:34:13.908Z,4.17
2023-03-11T14:36:52.570Z,4.93
2023-03-11T14:39:39.320Z,3.60
2023-03-11T14:42:12.370Z,3.87
2023-03-11T14:44:47.449Z,4.13
2023-03-11T14:47:29.652Z,5.20
2023-03-11T14:49:57.914Z,6.37
2023-03-11T14:52:48.899Z,3.73
2023-03-11T14:55:22.924Z,6.03
2023-03-11T14:57:55.617Z,4.03
2023-03-11T15:00:28.180Z,4.40
2023-03-11T15:03:03.973Z,3.90
2023-03-11T15:05:38.701Z,3.07
2023-03-11T15:08:07.520Z,3.80
2023-03-11T15:13:14.952Z,6.70
2023-03-11T15:15:42.400Z,7.23
2023-03-11T15:18:23.333Z,5.10
2023-03-11T15:21:05.762Z,3.53
2023-03-11T15:23:35.332Z,4.13
2023-03-11T15:26:04.270Z,3.50
2023-03-11T15:28:33.731Z,5.75
2023-03-11T15:31:22.636Z,59.00
2023-03-11T15:33:53.449Z,31.23
2023-03-11T15:36:44.698Z,11.17
2023-03-11T15:39:19.125Z,9.93
2023-03-11T15:41:59.687Z,4.10
2023-03-11T15:44:32.727Z,4.10
2023-03-11T15:47:00.952Z,4.73
2023-03-11T15:49:29.514Z,24.67
2023-03-11T15:52:00.369Z,27.23
2023-03-11T15:54:27.849Z,36.83
2023-03-11T15:56:57.763Z,28.13
2023-03-11T15:59:25.684Z,30.80
2023-03-11T16:01:52.855Z,20.40
2023-03-11T16:04:21.113Z,21.73
2023-03-11T16:06:59.400Z,9.68
2023-03-11T16:09:31.680Z,8.40
2023-03-11T16:11:59.231Z,24.45
2023-03-11T16:14:26.266Z,17.83
2023-03-11T16:16:53.426Z,12.33
2023-03-11T16:19:20.337Z,18.10
2023-03-11T16:21:50.606Z,19.10
2023-03-11T16:24:24.175Z,37.73
2023-03-11T16:26:52.855Z,52.10
2023-03-11T16:29:20.421Z,53.25
2023-03-11T16:31:48.958Z,84.27
2023-03-11T16:34:15.828Z,76.75
2023-03-11T16:36:43.033Z,73.93
2023-03-11T16:39:10.040Z,17.37
2023-03-11T16:41:42.616Z,22.13
2023-03-11T16:44:10.118Z,20.20
2023-03-11T16:46:37.577Z,14.73
2023-03-11T16:49:05.373Z,8.43
2023-03-11T16:51:33.153Z,4.78
2023-03-11T16:54:00.206Z,5.27
2023-03-11T16:56:27.969Z,4.63
2023-03-11T16:58:55.005Z,6.20
2023-03-11T17:01:22.540Z,5.30
2023-03-11T17:03:53.019Z,5.37
2023-03-11T17:06:21.386Z,6.23
2023-03-11T17:08:51.335Z,5.13
2023-03-11T17:11:21.380Z,5.00
2023-03-11T17:13:48.669Z,6.43
2023-03-11T17:16:15.939Z,5.30
2023-03-11T17:18:42.931Z,5.17
2023-03-11T17:21:13.756Z,6.27
2023-03-11T17:23:41.107Z,6.10
2023-03-11T17:26:14.170Z,6.90
2023-03-11T17:28:41.947Z,7.97
2023-03-11T17:31:13.600Z,6.80
2023-03-11T17:33:40.898Z,9.10
2023-03-11T17:36:11.093Z,6.53
2023-03-11T17:38:38.053Z,6.87
2023-03-11T17:41:10.354Z,4.47
2023-03-11T17:43:37.264Z,4.83
2023-03-11T17:46:16.080Z,5.07
2023-03-11T17:48:45.075Z,5.00
2023-03-11T17:51:15.389Z,6.10
2023-03-11T17:53:45.868Z,4.80
2023-03-11T17:56:15.168Z,3.97
2023-03-11T17:58:42.269Z,5.85
2023-03-11T18:01:15.908Z,8.13
2023-03-11T18:03:43.209Z,6.17
2023-03-11T18:06:11.086Z,6.33
2023-03-11T18:08:37.966Z,6.50
2023-03-11T18:11:08.263Z,8.63
2023-03-11T18:13:35.824Z,7.27
2023-03-11T18:16:13.578Z,7.87
2023-03-11T18:18:41.330Z,7.53
2023-03-11T18:21:14.455Z,8.07
2023-03-11T18:23:42.050Z,7.27
2023-03-11T18:26:11.509Z,8.80
2023-03-11T18:28:38.677Z,8.03
2023-03-11T18:31:17.453Z,8.33
2023-03-11T18:33:50.254Z,8.07
2023-03-11T18:36:21.609Z,8.73
2023-03-11T18:38:49.229Z,7.80
2023-03-11T18:41:16.640Z,8.83
2023-03-11T18:43:43.808Z,9.70
2023-03-11T18:46:15.449Z,9.47
2023-03-11T18:48:42.766Z,10.03
2023-03-11T18:51:10.066Z,8.53
2023-03-11T18:53:37.258Z,10.50
2023-03-11T18:56:07.129Z,9.57
2023-03-11T18:58:34.062Z,9.40
2023-03-11T19:01:14.396Z,8.60
2023-03-11T19:03:43.275Z,12.13
2023-03-11T19:06:12.352Z,9.20
2023-03-11T19:08:39.824Z,10.90
2023-03-11T19:11:13.058Z,10.53
2023-03-11T19:13:47.102Z,10.40
2023-03-11T19:16:18.358Z,10.60
2023-03-11T19:18:45.876Z,10.57
2023-03-11T19:21:14.631Z,10.47
2023-03-11T19:23:41.963Z,10.98
2023-03-11T19:26:09.390Z,10.27
2023-03-11T19:28:36.866Z,9.97
2023-03-11T19:31:05.328Z,9.43
2023-03-11T19:33:32.633Z,8.88
2023-03-11T19:36:02.561Z,10.93
2023-03-11T19:38:30.159Z,8.60
2023-03-11T19:41:23.305Z,8.97
2023-03-11T19:43:50.239Z,13.67
2023-03-11T19:46:20.927Z,13.37
2023-03-11T19:48:47.961Z,13.30
2023-03-11T19:51:17.361Z,10.10
2023-03-11T19:53:44.706Z,8.17
2023-03-11T19:56:11.993Z,8.80
2023-03-11T19:58:40.721Z,8.93
2023-03-11T20:03:41.556Z,9.63
2023-03-11T20:06:08.921Z,7.80
2023-03-11T20:08:37.440Z,8.70
2023-03-11T20:11:05.847Z,8.55
2023-03-11T20:13:34.625Z,8.40
2023-03-11T20:16:10.437Z,8.80
2023-03-11T20:18:37.434Z,8.70
2023-03-11T20:21:09.321Z,9.53
2023-03-11T20:23:37.638Z,8.67
2023-03-11T20:26:07.327Z,8.88
2023-03-11T20:28:34.196Z,7.47
2023-03-11T20:31:11.510Z,8.70
2023-03-11T20:33:39.136Z,8.07
2023-03-11T20:36:09.017Z,8.03
2023-03-11T20:38:36.196Z,7.47
2023-03-11T20:41:06.393Z,8.53
2023-03-11T20:43:33.784Z,7.97
2023-03-11T20:46:01.255Z,8.83
2023-03-11T20:48:28.643Z,8.30
2023-03-11T20:51:03.366Z,8.43
2023-03-11T20:53:31.342Z,8.10
2023-03-11T20:56:00.501Z,9.45
2023-03-11T20:58:27.474Z,8.25
2023-03-11T21:01:00.061Z,7.50
2023-03-11T21:03:27.345Z,8.57
2023-03-11T21:05:54.749Z,8.37
2023-03-11T21:08:21.768Z,8.10
2023-03-11T21:10:48.957Z,7.00
2023-03-11T21:13:15.966Z,6.60
2023-03-11T21:15:43.310Z,6.87
2023-03-11T21:18:10.501Z,6.50
2023-03-11T21:20:37.748Z,5.93
2023-03-11T21:23:05.300Z,5.90
2023-03-11T21:25:33.318Z,5.83
2023-03-11T21:28:00.266Z,6.03
2023-03-11T21:30:27.516Z,5.47
2023-03-11T21:32:54.532Z,6.33
2023-03-11T21:35:21.946Z,5.53
2023-03-11T21:37:49.039Z,6.53
2023-03-11T21:40:16.293Z,5.63
2023-03-11T21:42:43.245Z,6.23
2023-03-11T21:45:11.865Z,6.47
2023-03-11T21:47:38.896Z,6.37
2023-03-11T21:50:06.912Z,7.30
2023-03-11T21:52:33.850Z,5.80
2023-03-11T21:55:01.119Z,6.13
2023-03-11T21:57:28.157Z,7.13
2023-03-11T21:59:55.521Z,6.43
2023-03-11T22:02:22.409Z,6.20
2023-03-11T22:04:49.878Z,6.53
2023-03-11T22:07:17.234Z,5.93
2023-03-11T22:09:44.364Z,6.30
2023-03-11T22:12:11.425Z,6.33
2023-03-11T22:14:38.738Z,6.63
2023-03-11T22:17:05.851Z,5.73
2023-03-11T22:19:33.165Z,5.73
2023-03-11T22:22:00.227Z,6.17
2023-03-11T22:24:27.626Z,5.20
2023-03-11T22:26:54.593Z,4.97
2023-03-11T22:29:21.706Z,4.33
2023-03-11T22:31:48.755Z,5.30
2023-03-11T22:34:16.048Z,5.13
2023-03-11T22:36:42.993Z,5.43
2023-03-11T22:39:10.157Z,5.83
2023-03-11T22:41:37.069Z,5.53
2023-03-11T22:44:04.222Z,4.77
2023-03-11T22:46:31.188Z,5.23
2023-03-11T22:48:59.444Z,4.67
2023-03-11T22:51:26.333Z,4.50
2023-03-11T22:53:53.468Z,5.27
2023-03-11T22:56:20.413Z,5.30
2023-03-11T22:58:47.692Z,5.57
2023-03-11T23:01:14.869Z,5.10
2023-03-11T23:03:43.579Z,5.63
2023-03-11T23:06:15.366Z,4.72
2023-03-11T23:08:44.091Z,4.97
2023-03-11T23:11:14.511Z,5.28
2023-03-11T23:13:43.075Z,5.40
2023-03-11T23:16:18.433Z,4.93
2023-03-11T23:18:47.360Z,5.37
2023-03-11T23:21:19.486Z,4.38
2023-03-11T23:23:47.414Z,4.50
2023-03-11T23:26:15.719Z,4.57
2023-03-11T23:28:43.770Z,4.75
2023-03-11T23:31:13.068Z,5.07
2023-03-11T23:33:40.717Z,5.73
2023-03-11T23:36:10.858Z,5.30
2023-03-11T23:38:38.257Z,4.10
2023-03-11T23:41:13.383Z,4.43
2023-03-11T23:43:40.825Z,5.73
2023-03-11T23:46:08.781Z,4.77
2023-03-11T23:48:37.448Z,5.15
2023-03-11T23:51:05.042Z,5.25
2023-03-11T23:53:33.072Z,4.70
2023-03-11T23:56:00.121Z,3.80
2023-03-11T23:58:27.310Z,4.60
